Time;durP1;ratioP1;P1;durP2;ratioP2;P2;SDS_P1;SDS_P2;PMS_P1;PMS_P2;Temp;Humidity;BMP_temperature;BMP_pressure;BME280_temperature;BME280_humidity;BME280_pressure;Samples;Min_cycle;Max_cycle;Signal;HPM_P1;HPM_P2
2023/10/23 00:01:19;;;;;;;;;;;;;;;;;;5028689;28;20379;-77
2023/10/23 00:03:45;;;;;;;;;;;;;;;;;;5039132;28;19921;-77
2023/10/23 00:06:12;;;;;;;;;;;;;;;;;;5029858;28;19921;-78
2023/10/23 00:08:38;;;;;;;;;;;;;;;;;;5038304;28;20542;-77
2023/10/23 00:11:05;;;;;;;;;;;;;;;;;;5027636;28;19940;-77
2023/10/23 00:13:32;;;;;;;;;;;;;;;;;;5032451;28;19928;-77
2023/10/23 00:15:58;;;;;;;;;;;;;;;;;;5033873;28;19921;-75
2023/10/23 00:18:25;;;;;;;;;;;;;;;;;;5030576;28;19920;-77
2023/10/23 00:20:51;;;;;;;;;;;;;;;;;;5031057;28;19921;-77
2023/10/23 00:23:18;;;;;;;;;;;;;;;;;;5034573;28;19925;-76
2023/10/23 00:25:44;;;;;;;;;;;;;;;;;;5026213;28;19921;-76
2023/10/23 00:28:11;;;;;;;;;;;;;;;;;;5028425;28;19921;-77
2023/10/23 00:30:37;;;;;;;;;;;;;;;;;;5016247;28;19924;-76
2023/10/23 00:33:04;;;;;;;;;;;;;;;;;;5026540;28;19956;-77
2023/10/23 00:35:32;;;;;;;;;;;;;;;;;;5039707;28;19920;-76
2023/10/23 00:37:59;;;;;;;;;;;;;;;;;;5043502;28;19927;-75
2023/10/23 00:40:25;;;;;;;;;;;;;;;;;;5050130;28;20213;-77
2023/10/23 00:42:52;;;;;;;;;;;;;;;;;;5050576;28;20470;-75
2023/10/23 00:45:19;;;;;;;;;;;;;;;;;;5008600;28;19936;-77
2023/10/23 00:47:46;;;;;;;;;;;;;;;;;;5001265;28;19925;-76
2023/10/23 00:50:12;;;;;;;;;;;;;;;;;;5025005;28;19925;-77
2023/10/23 00:52:39;;;;;;;;;;;;;;;;;;5035987;28;19973;-77
2023/10/23 00:55:05;;;;;;;;;;;;;;;;;;5037439;28;19928;-77
2023/10/23 00:57:32;;;;;;;;;;;;;;;;;;5042009;28;19920;-77
2023/10/23 00:59:58;;;;;;;;;;;;;;;;;;5043099;28;19932;-76
2023/10/23 01:02:25;;;;;;;;;;;;;;;;;;4991785;28;19967;-77
2023/10/23 01:04:51;;;;;;;;;;;;;;;;;;5017833;28;19921;-77
2023/10/23 01:07:18;;;;;;;;;;;;;;;;;;5016177;28;19965;-77
2023/10/23 01:09:44;;;;;;;;;;;;;;;;;;5041223;28;19928;-75
2023/10/23 01:12:12;;;;;;;;;;;;;;;;;;5010752;28;19949;-77
2023/10/23 01:14:38;;;;;;;;;;;;;;;;;;5040810;28;19921;-76
2023/10/23 01:17:05;;;;;;;;;;;;;;;;;;5015811;28;19929;-77
2023/10/23 01:19:31;;;;;;;;;;;;;;;;;;5018544;28;20378;-77
2023/10/23 01:21:58;;;;;;;;;;;;;;;;;;5015554;28;19928;-76
2023/10/23 01:24:24;;;;;;;;;;;;;;;;;;5011947;28;19926;-77
2023/10/23 01:26:51;;;;;;;;;;;;;;;;;;5018012;28;19921;-75
2023/10/23 01:29:18;;;;;;;;;;;;;;;;;;5014578;28;19972;-77
2023/10/23 01:31:44;;;;;;;;;;;;;;;;;;5011256;28;20315;-76
2023/10/23 01:34:11;;;;;;;;;;;;;;;;;;5014515;28;19926;-76
2023/10/23 01:36:37;;;;;;;;;;;;;;;;;;5008029;28;19921;-75
2023/10/23 01:39:04;;;;;;;;;;;;;;;;;;5022662;28;19925;-77
2023/10/23 01:41:31;;;;;;;;;;;;;;;;;;5009381;28;19932;-75
2023/10/23 01:43:57;;;;;;;;;;;;;;;;;;5009185;28;19929;-76
2023/10/23 01:46:24;;;;;;;;;;;;;;;;;;5014713;28;20323;-75
2023/10/23 01:48:50;;;;;;;;;;;;;;;;;;5007573;28;19928;-76
2023/10/23 01:51:17;;;;;;;;;;;;;;;;;;5009771;28;19925;-76
2023/10/23 01:53:44;;;;;;;;;;;;;;;;;;5008387;28;20470;-76
2023/10/23 01:56:10;;;;;;;;;;;;;;;;;;4993451;28;20452;-76
2023/10/23 01:58:37;;;;;;;;;;;;;;;;;;4990469;28;19922;-76
2023/10/23 02:01:03;;;;;;;;;;;;;;;;;;5027125;28;19922;-77
2023/10/23 02:03:32;;;;;;;;;;;;;;;;;;5018750;28;19952;-76
2023/10/23 02:05:59;;;;;;;;;;;;;;;;;;5017163;28;19922;-77
2023/10/23 02:08:25;;;;;;;;;;;;;;;;;;5015360;28;19921;-78
2023/10/23 02:10:52;;;;;;;;;;;;;;;;;;5009715;28;19928;-76
2023/10/23 02:13:18;;;;;;;;;;;;;;;;;;5031319;28;19932;-76
2023/10/23 02:15:45;;;;;;;;;;;;;;;;;;5013923;28;19922;-76
2023/10/23 02:18:11;;;;;;;;;;;;;;;;;;5023258;28;19921;-77
2023/10/23 02:20:38;;;;;;;;;;;;;;;;;;5022663;28;19925;-77
2023/10/23 02:23:04;;;;;;;;;;;;;;;;;;5020013;28;19921;-78
2023/10/23 02:25:31;;;;;;;;;;;;;;;;;;5022215;28;19975;-77
2023/10/23 02:27:57;;;;;;;;;;;;;;;;;;5022057;28;20554;-76
2023/10/23 02:30:25;;;;;;;;;;;;;;;;;;5009539;28;19925;-77
2023/10/23 02:32:51;;;;;;;;;;;;;;;;;;5024073;28;19928;-78
2023/10/23 02:35:18;;;;;;;;;;;;;;;;;;5009335;28;19932;-76
2023/10/23 02:37:44;;;;;;;;;;;;;;;;;;5029956;28;19975;-77
2023/10/23 02:40:11;;;;;;;;;;;;;;;;;;5014980;28;19928;-79
2023/10/23 02:42:38;;;;;;;;;;;;;;;;;;5019848;28;19944;-75
2023/10/23 02:45:04;;;;;;;;;;;;;;;;;;5012743;28;19960;-77
2023/10/23 02:47:31;;;;;;;;;;;;;;;;;;5006506;28;19929;-78
2023/10/23 02:49:57;;;;;;;;;;;;;;;;;;5020252;28;20622;-78
2023/10/23 02:52:24;;;;;;;;;;;;;;;;;;5002487;28;20313;-77
2023/10/23 02:54:51;;;;;;;;;;;;;;;;;;5024967;28;19970;-77
2023/10/23 02:57:17;;;;;;;;;;;;;;;;;;5025122;28;19921;-77
2023/10/23 02:59:46;;;;;;;;;;;;;;;;;;5015226;28;19929;-76
2023/10/23 03:02:13;;;;;;;;;;;;;;;;;;5017001;28;19921;-77
2023/10/23 03:04:40;;;;;;;;;;;;;;;;;;5016937;28;19955;-77
2023/10/23 03:07:07;;;;;;;;;;;;;;;;;;5019447;28;19935;-77
2023/10/23 03:09:33;;;;;;;;;;;;;;;;;;5018011;28;19936;-75
2023/10/23 03:12:00;;;;;;;;;;;;;;;;;;5022106;28;19921;-77
2023/10/23 03:14:26;;;;;;;;;;;;;;;;;;5025622;28;20004;-76
2023/10/23 03:16:53;;;;;;;;;;;;;;;;;;5004156;28;19964;-77
2023/10/23 03:19:22;;;;;;;;;;;;;;;;;;5018173;28;19936;-77
2023/10/23 03:21:49;;;;;;;;;;;;;;;;;;5017032;28;20517;-76
2023/10/23 03:24:16;;;;;;;;;;;;;;;;;;5023882;28;19937;-76
2023/10/23 03:26:42;;;;;;;;;;;;;;;;;;5024300;28;20281;-77
2023/10/23 03:29:09;;;;;;;;;;;;;;;;;;5029323;28;19922;-75
2023/10/23 03:31:35;;;;;;;;;;;;;;;;;;5009187;28;19930;-77
2023/10/23 03:34:02;;;;;;;;;;;;;;;;;;5009359;28;20322;-77
2023/10/23 03:36:28;;;;;;;;;;;;;;;;;;5029345;28;19987;-77
2023/10/23 03:38:55;;;;;;;;;;;;;;;;;;5008447;28;19922;-76
2023/10/23 03:41:22;;;;;;;;;;;;;;;;;;5015376;28;19921;-78
2023/10/23 03:43:49;;;;;;;;;;;;;;;;;;5030897;28;20357;-78
2023/10/23 03:46:16;;;;;;;;;;;;;;;;;;5010728;28;19931;-77
2023/10/23 03:48:43;;;;;;;;;;;;;;;;;;5047192;28;22715;-78
2023/10/23 03:51:09;;;;;;;;;;;;;;;;;;4994240;28;19943;-78
2023/10/23 03:53:36;;;;;;;;;;;;;;;;;;5013294;28;19921;-77
2023/10/23 03:56:02;;;;;;;;;;;;;;;;;;5037690;28;20341;-77
2023/10/23 03:58:29;;;;;;;;;;;;;;;;;;5016851;28;19928;-78
2023/10/23 04:00:56;;;;;;;;;;;;;;;;;;5015972;28;19972;-77
2023/10/23 04:03:22;;;;;;;;;;;;;;;;;;5014073;28;19921;-77
2023/10/23 04:05:49;;;;;;;;;;;;;;;;;;5005980;28;19928;-76
2023/10/23 04:08:15;;;;;;;;;;;;;;;;;;5024385;28;19956;-76
2023/10/23 04:10:42;;;;;;;;;;;;;;;;;;5046530;28;19927;-76
2023/10/23 04:13:08;;;;;;;;;;;;;;;;;;5019760;28;20302;-76
2023/10/23 04:15:35;;;;;;;;;;;;;;;;;;5038555;28;19974;-76
2023/10/23 04:18:02;;;;;;;;;;;;;;;;;;5039241;28;20023;-79
2023/10/23 04:20:29;;;;;;;;;;;;;;;;;;5046089;28;19936;-77
2023/10/23 04:22:55;;;;;;;;;;;;;;;;;;5043104;28;19984;-78
2023/10/23 04:25:22;;;;;;;;;;;;;;;;;;5045440;28;19988;-77
2023/10/23 04:27:48;;;;;;;;;;;;;;;;;;5039726;28;20000;-77
2023/10/23 04:30:16;;;;;;;;;;;;;;;;;;5047283;28;19979;-78
2023/10/23 04:32:43;;;;;;;;;;;;;;;;;;5041363;28;20304;-78
2023/10/23 04:35:09;;;;;;;;;;;;;;;;;;5021758;28;19921;-78
2023/10/23 04:37:36;;;;;;;;;;;;;;;;;;5040893;28;20032;-77
2023/10/23 04:40:02;;;;;;;;;;;;;;;;;;5047722;28;20008;-78
2023/10/23 04:42:29;;;;;;;;;;;;;;;;;;5050804;28;20370;-78
2023/10/23 04:44:55;;;;;;;;;;;;;;;;;;5040878;28;19928;-78
2023/10/23 04:47:22;;;;;;;;;;;;;;;;;;5044735;28;19921;-77
2023/10/23 04:49:48;;;;;;;;;;;;;;;;;;5035250;28;21772;-78
2023/10/23 04:52:16;;;;;;;;;;;;;;;;;;5037848;28;20350;-78
2023/10/23 04:54:43;;;;;;;;;;;;;;;;;;5040350;28;19943;-79
2023/10/23 04:57:09;;;;;;;;;;;;;;;;;;5044939;28;19920;-78
2023/10/23 04:59:36;;;;;;;;;;;;;;;;;;5046643;28;20472;-77
2023/10/23 05:02:03;;;;;;;;;;;;;;;;;;5047819;28;19932;-77
2023/10/23 05:04:30;;;;;;;;;;;;;;;;;;5055589;28;19932;-78
2023/10/23 05:06:57;;;;;;;;;;;;;;;;;;5052853;28;19929;-79
2023/10/23 05:09:23;;;;;;;;;;;;;;;;;;5060067;28;20012;-77
2023/10/23 05:11:50;;;;;;;;;;;;;;;;;;5039009;28;21504;-77
2023/10/23 05:14:17;;;;;;;;;;;;;;;;;;5040637;28;20011;-77
2023/10/23 05:16:43;;;;;;;;;;;;;;;;;;5044031;28;20130;-78
2023/10/23 05:19:10;;;;;;;;;;;;;;;;;;5040945;28;20538;-77
2023/10/23 05:21:37;;;;;;;;;;;;;;;;;;5050658;28;19984;-77
2023/10/23 05:24:04;;;;;;;;;;;;;;;;;;5053741;28;19921;-77
2023/10/23 05:26:30;;;;;;;;;;;;;;;;;;5058958;28;19968;-78
2023/10/23 05:28:56;;;;;;;;;;;;;;;;;;5053728;28;20462;-78
2023/10/23 05:31:23;;;;;;;;;;;;;;;;;;5033295;28;20570;-77
2023/10/23 05:33:51;;;;;;;;;;;;;;;;;;5051384;28;19921;-79
2023/10/23 05:36:18;;;;;;;;;;;;;;;;;;5053622;28;20327;-77
2023/10/23 05:38:44;;;;;;;;;;;;;;;;;;5049628;28;20003;-78
2023/10/23 05:41:12;;;;;;;;;;;;;;;;;;5054727;28;19992;-78
2023/10/23 05:43:39;;;;;;;;;;;;;;;;;;5053912;28;19928;-78
2023/10/23 05:46:05;;;;;;;;;;;;;;;;;;5051176;28;20019;-76
2023/10/23 05:48:33;;;;;;;;;;;;;;;;;;5052881;28;19981;-77
2023/10/23 05:51:00;;;;;;;;;;;;;;;;;;5034665;28;19921;-76
2023/10/23 05:53:26;;;;;;;;;;;;;;;;;;5026296;28;21022;-77
2023/10/23 05:55:53;;;;;;;;;;;;;;;;;;5010523;28;20118;-78
2023/10/23 05:58:20;;;;;;;;;;;;;;;;;;5020931;28;20027;-77
2023/10/23 06:00:46;;;;;;;;;;;;;;;;;;5049684;28;19951;-77
2023/10/23 06:03:16;;;;;;;;;;;;;;;;;;5042106;28;20574;-78
2023/10/23 06:05:43;;;;;;;;;;;;;;;;;;5026133;28;19991;-78
2023/10/23 06:08:10;;;;;;;;;;;;;;;;;;5036603;28;19920;-78
2023/10/23 06:10:36;;;;;;;;;;;;;;;;;;5050332;28;20023;-77
2023/10/23 06:13:03;;;;;;;;;;;;;;;;;;5029059;28;20071;-78
2023/10/23 06:15:29;;;;;;;;;;;;;;;;;;5040300;28;19921;-77
2023/10/23 06:17:56;;;;;;;;;;;;;;;;;;5036354;28;20390;-77
2023/10/23 06:20:23;;;;;;;;;;;;;;;;;;5037985;28;20001;-76
2023/10/23 06:22:49;;;;;;;;;;;;;;;;;;5045609;28;20015;-78
2023/10/23 06:25:16;;;;;;;;;;;;;;;;;;5041868;28;19976;-77
2023/10/23 06:27:43;;;;;;;;;;;;;;;;;;5038174;28;19967;-78
2023/10/23 06:30:10;;;;;;;;;;;;;;;;;;5037769;28;20478;-77
2023/10/23 06:32:36;;;;;;;;;;;;;;;;;;5037866;28;20361;-77
2023/10/23 06:35:04;;;;;;;;;;;;;;;;;;5021881;28;19921;-76
2023/10/23 06:37:30;;;;;;;;;;;;;;;;;;5049430;28;20557;-77
2023/10/23 06:39:57;;;;;;;;;;;;;;;;;;5041091;28;20019;-77
2023/10/23 06:42:24;;;;;;;;;;;;;;;;;;5045746;28;19920;-77
2023/10/23 06:44:50;;;;;;;;;;;;;;;;;;5038858;28;19928;-77
2023/10/23 06:47:17;;;;;;;;;;;;;;;;;;5046130;28;19984;-78
2023/10/23 06:49:46;;;;;;;;;;;;;;;;;;5029916;28;19928;-78
2023/10/23 06:52:13;;;;;;;;;;;;;;;;;;5049637;28;19921;-78
2023/10/23 06:54:39;;;;;;;;;;;;;;;;;;5036926;28;19999;-78
2023/10/23 06:57:06;;;;;;;;;;;;;;;;;;5033610;28;19929;-78
2023/10/23 06:59:33;;;;;;;;;;;;;;;;;;5037457;28;20527;-78
2023/10/23 07:02:01;;;;;;;;;;;;;;;;;;5037812;28;20272;-77
2023/10/23 07:04:28;;;;;;;;;;;;;;;;;;5045859;28;19928;-78
2023/10/23 07:06:55;;;;;;;;;;;;;;;;;;5039934;28;19921;-77
2023/10/23 07:09:21;;;;;;;;;;;;;;;;;;5047399;28;19920;-78
2023/10/23 07:11:48;;;;;;;;;;;;;;;;;;5041141;28;20012;-79
2023/10/23 07:14:14;;;;;;;;;;;;;;;;;;5037688;28;20322;-78
2023/10/23 07:16:42;;;;;;;;;;;;;;;;;;5035227;28;19929;-78
2023/10/23 07:19:08;;;;;;;;;;;;;;;;;;5036407;28;20007;-78
2023/10/23 07:21:35;;;;;;;;;;;;;;;;;;5037137;28;19921;-78
2023/10/23 07:24:02;;;;;;;;;;;;;;;;;;5034572;28;19984;-78
2023/10/23 07:26:29;;;;;;;;;;;;;;;;;;5034340;28;19924;-77
2023/10/23 07:28:55;;;;;;;;;;;;;;;;;;5035690;28;19984;-78
2023/10/23 07:31:22;;;;;;;;;;;;;;;;;;5050830;28;20007;-77
2023/10/23 07:33:50;;;;;;;;;;;;;;;;;;5038181;28;19932;-78
2023/10/23 07:36:18;;;;;;;;;;;;;;;;;;5044031;28;19925;-78
2023/10/23 07:38:44;;;;;;;;;;;;;;;;;;5042422;28;19984;-78
2023/10/23 07:41:11;;;;;;;;;;;;;;;;;;5038162;28;19921;-78
2023/10/23 07:43:37;;;;;;;;;;;;;;;;;;5037463;28;20019;-77
2023/10/23 07:46:04;;;;;;;;;;;;;;;;;;5019454;28;19948;-78
2023/10/23 07:48:41;;;;;;;;;;;;;;;;;;5043442;28;20663;-78
2023/10/23 07:51:08;;;;;;;;;;;;;;;;;;5039681;28;23102;-78
2023/10/23 07:53:37;;;;;;;;;;;;;;;;;;5044302;28;19921;-78
2023/10/23 07:56:04;;;;;;;;;;;;;;;;;;5061158;28;19921;-77
2023/10/23 07:58:31;;;;;;;;;;;;;;;;;;5041586;28;19984;-78
2023/10/23 08:00:57;;;;;;;;;;;;;;;;;;5023990;28;20016;-78
2023/10/23 08:03:24;;;;;;;;;;;;;;;;;;5018810;28;19980;-77
2023/10/23 08:05:50;;;;;;;;;;;;;;;;;;5032868;28;19928;-79
2023/10/23 08:08:17;;;;;;;;;;;;;;;;;;5031219;28;20445;-79
2023/10/23 08:10:44;;;;;;;;;;;;;;;;;;5035584;28;19956;-77
2023/10/23 08:13:10;;;;;;;;;;;;;;;;;;5022445;28;20411;-78
2023/10/23 08:15:38;;;;;;;;;;;;;;;;;;5020959;28;20000;-78
2023/10/23 08:18:04;;;;;;;;;;;;;;;;;;5019577;28;19945;-77
2023/10/23 08:20:31;;;;;;;;;;;;;;;;;;5034820;28;19925;-78
2023/10/23 08:22:58;;;;;;;;;;;;;;;;;;5033735;28;19999;-77
2023/10/23 08:25:25;;;;;;;;;;;;;;;;;;5032724;28;19957;-77
2023/10/23 08:27:52;;;;;;;;;;;;;;;;;;5031193;28;20404;-77
2023/10/23 08:30:18;;;;;;;;;;;;;;;;;;5025131;28;20012;-78
2023/10/23 08:32:45;;;;;;;;;;;;;;;;;;5030068;28;20019;-77
2023/10/23 08:35:19;;;;;;;;;;;;;;;;;;5015727;28;20461;-78
2023/10/23 08:37:45;;;;;;;;;;;;;;;;;;5018251;28;20055;-76
2023/10/23 08:40:13;;;;;;;;;;;;;;;;;;5053368;28;19932;-79
2023/10/23 08:42:39;;;;;;;;;;;;;;;;;;5024672;28;20307;-78
2023/10/23 08:45:06;;;;;;;;;;;;;;;;;;5052496;28;19921;-78
2023/10/23 08:47:32;;;;;;;;;;;;;;;;;;5020275;28;19984;-78
2023/10/23 08:50:01;;;;;;;;;;;;;;;;;;5024201;28;19921;-77
2023/10/23 08:52:28;;;;;;;;;;;;;;;;;;5017490;28;20016;-78
2023/10/23 08:54:55;;;;;;;;;;;;;;;;;;5022622;28;19936;-77
2023/10/23 08:57:21;;;;;;;;;;;;;;;;;;5013443;28;19933;-78
2023/10/23 08:59:48;;;;;;;;;;;;;;;;;;5021820;28;19921;-77
2023/10/23 09:02:14;;;;;;;;;;;;;;;;;;5025816;28;19922;-78
2023/10/23 09:04:41;;;;;;;;;;;;;;;;;;5025341;28;19976;-77
2023/10/23 09:07:12;;;;;;;;;;;;;;;;;;5034126;28;19921;-78
2023/10/23 09:09:39;;;;;;;;;;;;;;;;;;5036129;28;20000;-77
2023/10/23 09:12:06;;;;;;;;;;;;;;;;;;5021423;28;20346;-76
2023/10/23 09:14:35;;;;;;;;;;;;;;;;;;5019419;28;19921;-78
2023/10/23 09:17:03;;;;;;;;;;;;;;;;;;5022583;28;19993;-76
2023/10/23 09:19:36;;;;;;;;;;;;;;;;;;5024376;28;19997;-77
2023/10/23 09:22:04;;;;;;;;;;;;;;;;;;5017616;28;19933;-77
2023/10/23 09:24:31;;;;;;;;;;;;;;;;;;5018175;28;19933;-77
2023/10/23 09:26:57;;;;;;;;;;;;;;;;;;5019610;28;19927;-77
2023/10/23 09:29:24;;;;;;;;;;;;;;;;;;5035836;28;20012;-79
2023/10/23 09:31:50;;;;;;;;;;;;;;;;;;5018712;28;19975;-77
2023/10/23 09:34:21;;;;;;;;;;;;;;;;;;5015442;28;19941;-77
2023/10/23 09:36:47;;;;;;;;;;;;;;;;;;5042241;28;20419;-77
2023/10/23 09:39:15;;;;;;;;;;;;;;;;;;5017031;28;19932;-78
2023/10/23 09:41:42;;;;;;;;;;;;;;;;;;5021859;28;20004;-78
2023/10/23 09:44:09;;;;;;;;;;;;;;;;;;5024576;28;19925;-78
2023/10/23 09:46:36;;;;;;;;;;;;;;;;;;5031114;28;19921;-77
2023/10/23 09:49:03;;;;;;;;;;;;;;;;;;5018952;28;19925;-77
2023/10/23 09:51:30;;;;;;;;;;;;;;;;;;5033076;28;20003;-76
2023/10/23 09:53:58;;;;;;;;;;;;;;;;;;5021447;28;20423;-78
2023/10/23 09:56:25;;;;;;;;;;;;;;;;;;5027965;28;20004;-78
2023/10/23 09:58:51;;;;;;;;;;;;;;;;;;5020797;28;19932;-77
2023/10/23 10:01:18;;;;;;;;;;;;;;;;;;5032871;28;19981;-78
2023/10/23 10:03:44;;;;;;;;;;;;;;;;;;5041943;28;19925;-78
2023/10/23 10:06:11;;;;;;;;;;;;;;;;;;5039643;28;20011;-77
2023/10/23 10:08:38;;;;;;;;;;;;;;;;;;5052256;28;19920;-76
2023/10/23 10:11:05;;;;;;;;;;;;;;;;;;5036153;28;19970;-77
2023/10/23 10:13:31;;;;;;;;;;;;;;;;;;5040431;28;19921;-77
2023/10/23 10:15:58;;;;;;;;;;;;;;;;;;5035180;28;20003;-76
2023/10/23 10:18:24;;;;;;;;;;;;;;;;;;5030857;28;20171;-77
2023/10/23 10:20:51;;;;;;;;;;;;;;;;;;5030948;28;19921;-78
2023/10/23 10:23:18;;;;;;;;;;;;;;;;;;5059905;28;19985;-78
2023/10/23 10:25:45;;;;;;;;;;;;;;;;;;5039829;28;20327;-78
2023/10/23 10:28:11;;;;;;;;;;;;;;;;;;5035945;28;20023;-78
2023/10/23 10:30:38;;;;;;;;;;;;;;;;;;5039407;28;19921;-78
2023/10/23 10:33:05;;;;;;;;;;;;;;;;;;5022451;28;19981;-78
2023/10/23 10:35:52;;;;;;;;;;;;;;;;;;5019885;28;19936;-77
2023/10/23 10:38:19;;;;;;;;;;;;;;;;;;5017284;28;19925;-78
2023/10/23 10:40:46;;;;;;;;;;;;;;;;;;5024835;28;20004;-77
2023/10/23 10:43:12;;;;;;;;;;;;;;;;;;5028138;28;20039;-78
2023/10/23 10:45:39;;;;;;;;;;;;;;;;;;5032469;28;19929;-78
2023/10/23 10:48:06;;;;;;;;;;;;;;;;;;5017280;28;20004;-78
2023/10/23 10:50:33;;;;;;;;;;;;;;;;;;5019924;28;20008;-78
2023/10/23 10:52:59;;;;;;;;;;;;;;;;;;5020748;28;20410;-77
2023/10/23 10:55:26;;;;;;;;;;;;;;;;;;5018652;28;19933;-77
2023/10/23 10:57:53;;;;;;;;;;;;;;;;;;5014505;28;20003;-78
2023/10/23 11:00:22;;;;;;;;;;;;;;;;;;5021511;28;20008;-77
2023/10/23 11:02:49;;;;;;;;;;;;;;;;;;5046153;28;20016;-77
2023/10/23 11:05:16;;;;;;;;;;;;;;;;;;5025359;28;20383;-77
2023/10/23 11:07:43;;;;;;;;;;;;;;;;;;5019791;28;20087;-78
2023/10/23 11:10:09;;;;;;;;;;;;;;;;;;5017785;28;19978;-77
2023/10/23 11:12:36;;;;;;;;;;;;;;;;;;5023221;28;20033;-78
2023/10/23 11:15:04;;;;;;;;;;;;;;;;;;5021751;28;19921;-78
2023/10/23 11:17:31;;;;;;;;;;;;;;;;;;5039241;28;19944;-77
2023/10/23 11:20:03;;;;;;;;;;;;;;;;;;5027851;28;20376;-77
2023/10/23 11:22:30;;;;;;;;;;;;;;;;;;5018734;28;19989;-77
2023/10/23 11:24:57;;;;;;;;;;;;;;;;;;5031573;28;19992;-78
2023/10/23 11:27:23;;;;;;;;;;;;;;;;;;5026324;28;20494;-77
2023/10/23 11:29:50;;;;;;;;;;;;;;;;;;5047605;28;20004;-77
2023/10/23 11:32:16;;;;;;;;;;;;;;;;;;5019827;28;20562;-77
2023/10/23 11:34:43;;;;;;;;;;;;;;;;;;5020337;28;19933;-77
2023/10/23 11:37:10;;;;;;;;;;;;;;;;;;5026336;28;19925;-78
2023/10/23 11:39:36;;;;;;;;;;;;;;;;;;5019034;28;20065;-80
2023/10/23 11:42:03;;;;;;;;;;;;;;;;;;5036663;28;20006;-78
2023/10/23 11:44:30;;;;;;;;;;;;;;;;;;5026538;28;20328;-77
2023/10/23 11:46:56;;;;;;;;;;;;;;;;;;5019394;28;20015;-77
2023/10/23 11:49:23;;;;;;;;;;;;;;;;;;5029796;28;19921;-77
2023/10/23 11:51:49;;;;;;;;;;;;;;;;;;5020977;28;19921;-78
2023/10/23 11:54:16;;;;;;;;;;;;;;;;;;5017796;28;20271;-77
2023/10/23 11:56:43;;;;;;;;;;;;;;;;;;5050935;28;19934;-77
2023/10/23 11:59:10;;;;;;;;;;;;;;;;;;5022994;28;19972;-78
2023/10/23 12:01:36;;;;;;;;;;;;;;;;;;5033817;28;19960;-76
2023/10/23 12:04:04;;;;;;;;;;;;;;;;;;5035773;28;19917;-76
2023/10/23 12:06:30;;;;;;;;;;;;;;;;;;5028837;28;19940;-76
2023/10/23 12:08:57;;;;;;;;;;;;;;;;;;5035352;28;19948;-76
2023/10/23 12:11:25;;;;;;;;;;;;;;;;;;5038526;28;19928;-79
2023/10/23 12:13:51;;;;;;;;;;;;;;;;;;5054543;28;19948;-77
2023/10/23 12:16:17;;;;;;;;;;;;;;;;;;5039037;28;20250;-79
2023/10/23 12:18:44;;;;;;;;;;;;;;;;;;5042082;28;19948;-77
2023/10/23 12:21:12;;;;;;;;;;;;;;;;;;5046920;28;19988;-77
2023/10/23 12:23:38;;;;;;;;;;;;;;;;;;5040679;28;20361;-77
2023/10/23 12:26:05;;;;;;;;;;;;;;;;;;5035477;28;19932;-78
2023/10/23 12:28:32;;;;;;;;;;;;;;;;;;5038009;28;19925;-79
2023/10/23 12:30:58;;;;;;;;;;;;;;;;;;5039032;28;19922;-78
2023/10/23 12:33:25;;;;;;;;;;;;;;;;;;5045527;28;20314;-77
2023/10/23 12:36:00;;;;;;;;;;;;;;;;;;5057746;28;19932;-78
2023/10/23 12:38:27;;;;;;;;;;;;;;;;;;5044159;28;19932;-77
2023/10/23 12:40:53;;;;;;;;;;;;;;;;;;5040565;28;20377;-76
2023/10/23 12:43:20;;;;;;;;;;;;;;;;;;5036891;28;19921;-78
2023/10/23 12:45:46;;;;;;;;;;;;;;;;;;5049578;28;19928;-76
2023/10/23 12:48:13;;;;;;;;;;;;;;;;;;5040846;28;20079;-77
2023/10/23 12:50:40;;;;;;;;;;;;;;;;;;5052145;28;19943;-77
2023/10/23 12:53:06;;;;;;;;;;;;;;;;;;5050009;28;19975;-79
2023/10/23 12:55:33;;;;;;;;;;;;;;;;;;5046954;28;20015;-78
2023/10/23 12:58:00;;;;;;;;;;;;;;;;;;5041797;28;20008;-77
2023/10/23 13:00:27;;;;;;;;;;;;;;;;;;5051410;28;19932;-77
2023/10/23 13:02:53;;;;;;;;;;;;;;;;;;5044002;28;20221;-77
2023/10/23 13:05:20;;;;;;;;;;;;;;;;;;5048617;28;20019;-78
2023/10/23 13:07:47;;;;;;;;;;;;;;;;;;5042470;28;19921;-78
2023/10/23 13:10:13;;;;;;;;;;;;;;;;;;5041991;28;19928;-77
2023/10/23 13:12:40;;;;;;;;;;;;;;;;;;5052369;28;19921;-79
2023/10/23 13:15:06;;;;;;;;;;;;;;;;;;5044610;28;19984;-78
2023/10/23 13:17:33;;;;;;;;;;;;;;;;;;5060127;28;19920;-77
2023/10/23 13:19:59;;;;;;;;;;;;;;;;;;5045770;28;20055;-78
2023/10/23 13:22:46;;;;;;;;;;;;;;;;;;5032314;28;20575;-77
2023/10/23 13:25:15;;;;;;;;;;;;;;;;;;5028092;28;20109;-79
2023/10/23 13:27:42;;;;;;;;;;;;;;;;;;5036373;28;20108;-78
2023/10/23 13:30:10;;;;;;;;;;;;;;;;;;5025581;28;19921;-77
2023/10/23 13:32:37;;;;;;;;;;;;;;;;;;5022109;28;19928;-78
2023/10/23 13:35:04;;;;;;;;;;;;;;;;;;5036243;28;19925;-76
2023/10/23 13:37:31;;;;;;;;;;;;;;;;;;5020413;28;20016;-76
2023/10/23 13:39:57;;;;;;;;;;;;;;;;;;5013151;28;19925;-77
2023/10/23 13:42:24;;;;;;;;;;;;;;;;;;5007956;28;19929;-76
2023/10/23 13:44:50;;;;;;;;;;;;;;;;;;5029301;28;20222;-77
2023/10/23 13:47:17;;;;;;;;;;;;;;;;;;5017812;28;20708;-77
2023/10/23 13:49:43;;;;;;;;;;;;;;;;;;5019303;28;20040;-77
2023/10/23 13:52:10;;;;;;;;;;;;;;;;;;5025089;28;19980;-77
2023/10/23 13:54:37;;;;;;;;;;;;;;;;;;5028525;28;20016;-78
2023/10/23 13:57:05;;;;;;;;;;;;;;;;;;5028011;28;20142;-77
2023/10/23 13:59:31;;;;;;;;;;;;;;;;;;5025157;28;19944;-78
2023/10/23 14:01:58;;;;;;;;;;;;;;;;;;5020780;28;19997;-78
2023/10/23 14:04:24;;;;;;;;;;;;;;;;;;5009260;28;19990;-77
2023/10/23 14:06:51;;;;;;;;;;;;;;;;;;5019593;28;19921;-78
2023/10/23 14:09:17;;;;;;;;;;;;;;;;;;5026374;28;20528;-78
2023/10/23 14:12:04;;;;;;;;;;;;;;;;;;5036237;28;20385;-78
2023/10/23 14:14:30;;;;;;;;;;;;;;;;;;5036791;28;19930;-78
2023/10/23 14:16:58;;;;;;;;;;;;;;;;;;5050269;28;19943;-78
2023/10/23 14:19:24;;;;;;;;;;;;;;;;;;5056674;28;20011;-79
2023/10/23 14:22:09;;;;;;;;;;;;;;;;;;5050913;28;20374;-79
2023/10/23 14:24:35;;;;;;;;;;;;;;;;;;5033861;28;20581;-78
2023/10/23 14:27:02;;;;;;;;;;;;;;;;;;5044680;28;20003;-85
2023/10/23 14:29:29;;;;;;;;;;;;;;;;;;5017079;28;19926;-79
2023/10/23 14:31:55;;;;;;;;;;;;;;;;;;5021184;28;19975;-78
2023/10/23 14:34:23;;;;;;;;;;;;;;;;;;5014294;28;20400;-80
2023/10/23 14:36:49;;;;;;;;;;;;;;;;;;5013759;28;20379;-80
2023/10/23 14:39:16;;;;;;;;;;;;;;;;;;5015880;28;19929;-77
2023/10/23 14:41:43;;;;;;;;;;;;;;;;;;5032868;28;19929;-78
2023/10/23 14:44:09;;;;;;;;;;;;;;;;;;5011931;28;19928;-76
2023/10/23 14:46:36;;;;;;;;;;;;;;;;;;4989308;28;20196;-77
2023/10/23 14:49:03;;;;;;;;;;;;;;;;;;5027311;28;19948;-76
2023/10/23 14:51:30;;;;;;;;;;;;;;;;;;4993096;28;20394;-78
2023/10/23 14:53:56;;;;;;;;;;;;;;;;;;4976695;28;20180;-75
2023/10/23 14:56:23;;;;;;;;;;;;;;;;;;4961292;28;19924;-79
2023/10/23 14:58:49;;;;;;;;;;;;;;;;;;4925591;28;20289;-76
2023/10/23 15:01:16;;;;;;;;;;;;;;;;;;4953307;28;19993;-76
2023/10/23 15:03:43;;;;;;;;;;;;;;;;;;4960695;28;20145;-76
2023/10/23 15:06:09;;;;;;;;;;;;;;;;;;4991296;28;20296;-76
2023/10/23 15:08:36;;;;;;;;;;;;;;;;;;5011018;28;19925;-78
2023/10/23 15:11:03;;;;;;;;;;;;;;;;;;5035956;28;19939;-77
2023/10/23 15:13:30;;;;;;;;;;;;;;;;;;5039892;28;19924;-78
2023/10/23 15:15:58;;;;;;;;;;;;;;;;;;5042793;28;20378;-79
2023/10/23 15:18:24;;;;;;;;;;;;;;;;;;5047049;28;19983;-79
2023/10/23 15:20:51;;;;;;;;;;;;;;;;;;5038504;28;20480;-79
2023/10/23 15:23:17;;;;;;;;;;;;;;;;;;5032611;28;19925;-79
2023/10/23 15:25:44;;;;;;;;;;;;;;;;;;5035194;28;20028;-79
2023/10/23 15:28:11;;;;;;;;;;;;;;;;;;5036349;28;19990;-79
2023/10/23 15:30:37;;;;;;;;;;;;;;;;;;5035141;28;19932;-79
2023/10/23 15:33:04;;;;;;;;;;;;;;;;;;5026923;28;19950;-76
2023/10/23 15:35:32;;;;;;;;;;;;;;;;;;5036816;28;19925;-79
2023/10/23 15:37:58;;;;;;;;;;;;;;;;;;5035031;28;19935;-78
2023/10/23 15:40:25;;;;;;;;;;;;;;;;;;5039101;28;19931;-76
2023/10/23 15:42:55;;;;;;;;;;;;;;;;;;5033090;28;20015;-79
2023/10/23 15:45:22;;;;;;;;;;;;;;;;;;5034124;28;20008;-78
2023/10/23 15:47:49;;;;;;;;;;;;;;;;;;5034220;28;20007;-79
2023/10/23 15:50:15;;;;;;;;;;;;;;;;;;5031336;28;21754;-78
2023/10/23 15:52:42;;;;;;;;;;;;;;;;;;5035610;28;19989;-78
2023/10/23 15:55:08;;;;;;;;;;;;;;;;;;5035767;28;19932;-78
2023/10/23 15:57:35;;;;;;;;;;;;;;;;;;5041500;28;19921;-77
2023/10/23 16:00:02;;;;;;;;;;;;;;;;;;5054991;28;19929;-78
2023/10/23 16:02:30;;;;;;;;;;;;;;;;;;5023297;28;19947;-79
2023/10/23 16:04:56;;;;;;;;;;;;;;;;;;5026403;28;20032;-78
2023/10/23 16:07:25;;;;;;;;;;;;;;;;;;5028817;28;19932;-78
2023/10/23 16:09:54;;;;;;;;;;;;;;;;;;5032689;28;20526;-78
2023/10/23 16:12:21;;;;;;;;;;;;;;;;;;5025438;28;19968;-77
2023/10/23 16:14:48;;;;;;;;;;;;;;;;;;5025137;28;19925;-75
2023/10/23 16:17:22;;;;;;;;;;;;;;;;;;5021502;28;19932;-76
2023/10/23 16:19:49;;;;;;;;;;;;;;;;;;5034672;28;19927;-76
2023/10/23 16:22:16;;;;;;;;;;;;;;;;;;5039940;28;19920;-76
2023/10/23 16:24:43;;;;;;;;;;;;;;;;;;5041296;28;19928;-77
2023/10/23 16:27:09;;;;;;;;;;;;;;;;;;5022876;28;19952;-77
2023/10/23 16:29:36;;;;;;;;;;;;;;;;;;5023994;28;20318;-78
2023/10/23 16:32:02;;;;;;;;;;;;;;;;;;5018762;28;19928;-77
2023/10/23 16:34:29;;;;;;;;;;;;;;;;;;5024665;28;19929;-77
2023/10/23 16:36:57;;;;;;;;;;;;;;;;;;5023628;28;19952;-77
2023/10/23 16:39:26;;;;;;;;;;;;;;;;;;5024914;28;20016;-77
2023/10/23 16:41:52;;;;;;;;;;;;;;;;;;5042324;28;19993;-77
2023/10/23 16:44:19;;;;;;;;;;;;;;;;;;5054603;28;20012;-77